Time;durP1;ratioP1;P1;durP2;ratioP2;P2;SDS_P1;SDS_P2;PMS_P1;PMS_P2;Temp;Humidity;BMP_temperature;BMP_pressure;BME280_temperature;BME280_humidity;BME280_pressure;Samples;Min_cycle;Max_cycle;Signal;HPM_P1;HPM_P2
2022/01/18 00:00:18;;;;;;;28.67;11.45;;;;;;;9.96;45.54;102846.28;3976047;32;15136087;-70
2022/01/18 00:02:44;;;;;;;21.83;10.15;;;;;;;9.97;45.76;102840.28;4430508;32;20036;-70
2022/01/18 00:05:13;;;;;;;28.45;11.15;;;;;;;9.65;46.22;102841.88;4427352;32;20090;-70
2022/01/18 00:07:41;;;;;;;26.48;11.27;;;;;;;9.56;46.46;102843.34;4431474;32;20057;-70
2022/01/18 00:10:07;;;;;;;28.95;10.85;;;;;;;9.82;46.03;102832.06;4428672;32;20459;-70
2022/01/18 00:18:07;;;;;;;27.20;11.35;;;;;;;10.16;45.70;102852.59;4002476;31;15017647;-71
2022/01/18 00:20:49;;;;;;;30.23;11.23;;;;;;;10.16;45.70;102852.59;4461782;32;20063;-69
2022/01/18 00:23:15;;;;;;;23.85;10.95;;;;;;;9.85;45.87;102840.53;4456888;32;20040;-70
2022/01/18 00:25:44;;;;;;;23.40;10.57;;;;;;;9.48;46.36;102848.06;4455997;32;20352;-69
2022/01/18 00:28:10;;;;;;;27.65;10.52;;;;;;;9.46;46.44;102847.66;4461739;32;20165;-69
2022/01/18 00:33:37;;;;;;;23.48;10.95;;;;;;;9.59;46.25;102843.41;4460317;32;20080;-70
2022/01/18 00:36:05;;;;;;;27.70;11.12;;;;;;;9.44;46.48;102841.59;4460184;32;20089;-70
2022/01/18 00:38:44;;;;;;;27.23;11.43;;;;;;;9.63;46.21;102840.63;4465978;32;20603;-69
2022/01/18 00:41:10;;;;;;;25.42;10.88;;;;;;;9.42;46.43;102851.59;4457026;32;20064;-70
2022/01/18 00:43:36;;;;;;;25.75;11.38;;;;;;;9.52;46.54;102846.13;4457994;32;20041;-70
2022/01/18 00:46:03;;;;;;;23.10;10.70;;;;;;;9.49;46.48;102844.09;4461171;32;20032;-70
2022/01/18 00:48:33;;;;;;;24.05;10.70;;;;;;;9.50;46.68;102845.69;4462447;32;20499;-70
2022/01/18 00:50:59;;;;;;;22.00;10.00;;;;;;;9.48;46.75;102839.63;4456679;32;20091;-70
2022/01/18 00:53:26;;;;;;;27.62;11.23;;;;;;;9.55;46.49;102834.09;4461251;32;20367;-70
2022/01/18 00:56:07;;;;;;;25.73;11.07;;;;;;;9.52;46.33;102839.69;4457642;32;20037;-70
2022/01/18 00:58:33;;;;;;;28.85;10.27;;;;;;;9.55;46.46;102830.50;4458485;32;20044;-70
2022/01/18 01:00:59;;;;;;;22.67;9.95;;;;;;;9.49;46.44;102832.84;4458853;32;20068;-70
2022/01/18 01:03:24;;;;;;;17.30;8.85;;;;;;;9.35;46.42;102832.63;4463344;32;20391;-70
2022/01/18 01:05:50;;;;;;;23.20;10.50;;;;;;;9.45;46.52;102837.59;4460775;32;20028;-70
2022/01/18 01:08:16;;;;;;;26.12;10.80;;;;;;;9.38;46.66;102840.31;4459011;32;20033;-70
2022/01/18 01:10:43;;;;;;;20.67;8.93;;;;;;;9.55;46.54;102839.72;4457884;32;20338;-70
2022/01/18 01:13:11;;;;;;;27.65;8.65;;;;;;;9.38;46.55;102831.88;4460200;32;20364;-70
2022/01/18 01:15:57;;;;;;;16.50;7.85;;;;;;;9.51;46.43;102835.28;4460739;32;20076;-70
2022/01/18 01:33:03;;;;;;;18.23;7.60;;;;;;;9.30;46.45;102829.34;4448848;32;20066;-69
2022/01/18 01:45:59;;;;;;;18.37;8.13;;;;;;;9.65;46.09;102824.19;3953879;32;15723274;-69
2022/01/18 01:48:26;;;;;;;20.17;7.50;;;;;;;9.65;46.09;102824.19;4417530;32;20110;-70
2022/01/18 01:51:01;;;;;;;14.77;7.53;;;;;;;9.51;46.42;102824.81;4432409;32;20115;-70
2022/01/18 01:53:27;;;;;;;17.73;7.72;;;;;;;9.37;46.44;102821.84;4428370;32;20423;-70
2022/01/18 01:55:53;;;;;;;17.65;8.35;;;;;;;9.24;46.67;102823.22;4428703;32;20038;-70
2022/01/18 01:58:21;;;;;;;23.23;8.38;;;;;;;9.25;46.53;102815.63;4428810;32;20033;-70
2022/01/18 02:00:50;;;;;;;18.70;8.32;;;;;;;9.43;46.37;102811.88;4428657;32;20056;-69
2022/01/18 02:03:16;;;;;;;16.45;8.00;;;;;;;9.41;46.36;102811.44;4427011;32;20060;-69
2022/01/18 02:05:42;;;;;;;16.70;7.80;;;;;;;9.23;46.82;102812.38;4429053;32;20073;-69
2022/01/18 02:08:08;;;;;;;19.48;7.28;;;;;;;9.08;46.80;102810.56;4429358;32;20077;-69
2022/01/18 02:10:36;;;;;;;16.15;6.95;;;;;;;9.05;46.86;102809.31;4430785;32;20406;-69
2022/01/18 02:13:05;;;;;;;14.82;6.65;;;;;;;9.33;46.59;102811.72;4428188;32;20293;-69
2022/01/18 02:15:36;;;;;;;15.35;6.82;;;;;;;9.35;46.43;102812.97;4431131;32;20081;-69
2022/01/18 02:21:46;;;;;;;15.48;6.40;;;;;;;9.25;46.30;102804.38;4417942;32;20071;-69
2022/01/18 02:23:33;;;;;;;;;;;;;;;9.08;46.61;102791.69;4431624;32;20041;-69
2022/01/18 02:26:00;;;;;;;13.48;6.00;;;;;;;9.42;46.05;102799.00;4427859;32;19952;-69
2022/01/18 02:28:27;;;;;;;13.62;5.65;;;;;;;9.16;46.45;102795.41;4430228;32;20125;-69
2022/01/18 02:30:54;;;;;;;12.73;5.78;;;;;;;9.27;46.52;102793.59;4428735;32;20461;-69
2022/01/18 02:33:20;;;;;;;15.98;6.03;;;;;;;9.10;46.71;102794.94;4426332;32;20041;-69
2022/01/18 02:35:47;;;;;;;13.35;5.30;;;;;;;8.87;46.65;102788.56;4430184;32;20490;-69
2022/01/18 02:38:13;;;;;;;13.75;5.43;;;;;;;9.12;46.55;102786.97;4429566;32;20181;-69
2022/01/18 02:40:40;;;;;;;10.32;4.95;;;;;;;9.25;46.29;102787.53;4431775;32;20059;-69
2022/01/18 02:45:55;;;;;;;12.35;5.28;;;;;;;9.40;46.20;102783.72;4429422;32;20497;-69
2022/01/18 02:48:22;;;;;;;12.90;5.22;;;;;;;9.46;45.93;102785.00;4429435;32;20328;-69
2022/01/18 02:50:48;;;;;;;15.82;5.55;;;;;;;9.46;45.81;102794.25;4427889;32;20117;-69
2022/01/18 02:53:16;;;;;;;11.40;4.68;;;;;;;9.32;45.85;102794.06;4431053;32;20517;-69
2022/01/18 02:55:48;;;;;;;13.10;4.95;;;;;;;9.24;45.91;102786.69;4430166;32;20081;-70
2022/01/18 02:58:23;;;;;;;11.05;5.00;;;;;;;9.31;46.10;102786.00;4415998;32;20029;-69
2022/01/18 03:03:41;;;;;;;11.27;4.90;;;;;;;9.52;45.57;102794.72;3981832;32;15031236;-69
2022/01/18 03:06:08;;;;;;;13.65;4.87;;;;;;;9.52;45.57;102794.72;4433059;32;20041;-69
2022/01/18 03:08:34;;;;;;;12.93;5.28;;;;;;;9.14;46.26;102795.00;4435425;32;20101;-69
2022/01/18 03:11:02;;;;;;;12.93;5.03;;;;;;;9.19;46.11;102784.25;4434660;32;20045;-69
2022/01/18 03:13:28;;;;;;;14.43;5.15;;;;;;;9.30;45.94;102773.94;4432394;32;20197;-69
2022/01/18 03:15:53;;;;;;;14.57;4.90;;;;;;;8.96;46.29;102761.03;4436603;32;20069;-69
2022/01/18 03:18:19;;;;;;;15.00;5.60;;;;;;;8.83;46.56;102759.63;4437118;32;20045;-69
2022/01/18 03:20:45;;;;;;;12.98;4.95;;;;;;;8.81;46.53;102759.19;4432160;32;20401;-69
2022/01/18 03:23:17;;;;;;;10.45;4.82;;;;;;;8.89;46.39;102757.28;4433009;32;20494;-69
2022/01/18 03:26:01;;;;;;;9.50;4.55;;;;;;;8.90;46.40;102765.34;4434077;32;20533;-69
2022/01/18 03:28:28;;;;;;;9.80;4.60;;;;;;;8.92;46.45;102760.16;4433508;32;20041;-69
2022/01/18 03:30:57;;;;;;;12.90;4.57;;;;;;;8.91;46.78;102758.56;4435273;32;20784;-69
2022/01/18 03:33:27;;;;;;;10.15;4.53;;;;;;;8.84;46.87;102758.44;4430126;32;20033;-69
2022/01/18 03:35:53;;;;;;;9.85;4.40;;;;;;;8.93;46.76;102758.19;4435055;32;20101;-69
2022/01/18 03:38:21;;;;;;;10.90;4.40;;;;;;;8.90;46.55;102747.69;4433767;32;20034;-69
2022/01/18 03:40:47;;;;;;;10.23;4.50;;;;;;;8.97;46.56;102753.41;4432728;32;20093;-69
2022/01/18 03:43:14;;;;;;;11.63;4.90;;;;;;;9.02;46.25;102762.31;4432743;32;20155;-69
2022/01/18 03:45:44;;;;;;;11.77;3.80;;;;;;;9.00;46.30;102756.28;4433879;32;20423;-69
2022/01/18 03:48:16;;;;;;;11.63;4.18;;;;;;;9.18;46.07;102757.31;4434201;32;20399;-69
2022/01/18 03:50:42;;;;;;;9.40;3.67;;;;;;;9.18;46.05;102760.12;4428836;32;20090;-69
2022/01/18 03:53:10;;;;;;;10.98;4.18;;;;;;;8.95;46.19;102755.78;4432212;32;20034;-69
2022/01/18 03:55:37;;;;;;;12.02;3.30;;;;;;;9.00;46.18;102753.47;4432265;32;20072;-69
2022/01/18 03:58:02;;;;;;;8.75;3.75;;;;;;;8.90;46.41;102751.31;4433588;32;20707;-69
2022/01/18 04:00:29;;;;;;;10.85;3.47;;;;;;;8.90;46.31;102750.50;4430490;32;20045;-69
2022/01/18 04:02:55;;;;;;;7.95;2.97;;;;;;;8.95;46.21;102753.78;4430478;32;20084;-69
2022/01/18 04:05:22;;;;;;;9.60;3.15;;;;;;;8.97;46.44;102757.03;4432357;32;20094;-69
2022/01/18 04:07:49;;;;;;;7.07;3.30;;;;;;;8.92;46.61;102750.91;4435499;32;20049;-69
2022/01/18 04:10:15;;;;;;;5.90;2.28;;;;;;;8.95;46.57;102752.97;4433016;32;20509;-69
2022/01/18 04:12:41;;;;;;;8.20;3.30;;;;;;;8.90;46.54;102742.88;4434622;32;20105;-69
2022/01/18 04:15:10;;;;;;;12.40;3.10;;;;;;;8.82;46.72;102729.94;4422959;32;20462;-69
2022/01/18 04:18:18;;;;;;;7.57;2.90;;;;;;;8.93;46.50;102744.94;4423896;32;20070;-69
2022/01/18 04:26:01;;;;;;;8.65;3.12;;;;;;;8.68;46.71;102740.94;4421987;32;20471;-70
2022/01/18 04:31:07;;;;;;;8.43;3.05;;;;;;;9.29;45.70;102730.19;3979129;32;15031852;-69
2022/01/18 04:33:34;;;;;;;6.45;2.72;;;;;;;9.29;45.70;102730.19;4435888;32;20045;-69
2022/01/18 04:36:00;;;;;;;9.80;3.25;;;;;;;8.81;46.25;102727.50;4432193;32;20069;-69
2022/01/18 04:38:27;;;;;;;8.77;3.45;;;;;;;8.78;46.41;102722.66;4435495;32;20041;-69
2022/01/18 04:40:53;;;;;;;8.35;3.65;;;;;;;8.67;46.40;102721.66;4431913;32;20472;-69
2022/01/18 04:48:40;;;;;;;9.70;3.90;;;;;;;8.96;45.93;102726.53;4433683;32;20432;-70
2022/01/18 04:51:08;;;;;;;7.75;3.28;;;;;;;8.56;46.34;102721.50;4429685;32;20256;-70
2022/01/18 04:53:38;;;;;;;10.52;3.47;;;;;;;8.67;46.49;102713.25;4429670;32;20049;-70
2022/01/18 04:56:08;;;;;;;9.55;3.78;;;;;;;8.60;46.49;102719.59;4428440;32;20415;-70
2022/01/18 04:58:35;;;;;;;9.35;3.72;;;;;;;8.54;46.41;102720.25;4431838;32;20057;-70
2022/01/18 05:01:05;;;;;;;8.13;3.60;;;;;;;8.53;46.57;102713.84;4427537;32;20029;-70
2022/01/18 05:03:31;;;;;;;10.05;3.58;;;;;;;8.52;46.79;102715.03;4428782;32;20054;-70
2022/01/18 05:06:01;;;;;;;10.48;3.65;;;;;;;8.33;47.25;102711.50;4429664;32;20423;-69
2022/01/18 05:08:27;;;;;;;6.28;2.75;;;;;;;8.52;46.98;102705.78;4432134;32;20029;-69
2022/01/18 05:10:55;;;;;;;9.75;3.10;;;;;;;8.26;47.40;102700.16;4429678;32;20028;-70
2022/01/18 05:19:11;;;;;;;12.18;3.53;;;;;;;8.65;46.52;102693.97;3982093;32;15022469;-70
2022/01/18 05:24:09;;;;;;;5.90;2.42;;;;;;;8.57;46.35;102689.47;3966860;32;15029164;-70
2022/01/18 05:26:35;;;;;;;7.90;2.30;;;;;;;8.18;47.29;102679.56;4421965;32;20063;-69
2022/01/18 05:29:00;;;;;;;8.63;2.80;;;;;;;8.11;47.38;102682.28;4422080;32;20069;-69
2022/01/18 05:31:26;;;;;;;8.15;3.22;;;;;;;8.24;47.25;102680.91;4419413;32;20517;-69
2022/01/18 05:33:53;;;;;;;6.03;2.55;;;;;;;8.33;47.11;102677.84;4423568;32;20073;-69
2022/01/18 05:36:18;;;;;;;9.10;2.85;;;;;;;8.29;47.12;102682.59;4422678;32;20060;-69
2022/01/18 05:38:45;;;;;;;8.68;2.58;;;;;;;8.22;47.39;102679.66;4422672;32;20037;-69
2022/01/18 05:41:13;;;;;;;7.35;2.58;;;;;;;8.20;47.28;102678.00;4423994;32;20046;-69
2022/01/18 05:43:38;;;;;;;8.27;2.40;;;;;;;8.41;47.03;102677.59;4420793;32;20091;-69
2022/01/18 05:46:04;;;;;;;10.88;3.40;;;;;;;8.25;47.10;102664.91;4419024;32;20411;-69
2022/01/18 05:48:31;;;;;;;7.03;3.25;;;;;;;8.30;47.03;102658.94;4422015;32;20456;-69
2022/01/18 05:50:59;;;;;;;7.18;2.90;;;;;;;8.25;47.01;102662.88;4421611;32;20867;-69
2022/01/18 05:53:26;;;;;;;9.23;3.30;;;;;;;8.26;46.98;102655.28;4421329;32;20038;-69
2022/01/18 05:55:52;;;;;;;9.45;2.85;;;;;;;8.46;46.83;102654.81;4420447;32;20525;-69
2022/01/18 05:58:19;;;;;;;7.95;3.67;;;;;;;8.29;46.82;102649.75;4422496;32;20073;-69
2022/01/18 06:00:52;;;;;;;11.10;4.00;;;;;;;8.30;46.62;102651.34;4420815;32;20434;-70
2022/01/18 06:03:26;;;;;;;8.88;4.03;;;;;;;8.33;46.79;102650.59;4420014;32;20077;-70
2022/01/18 06:08:41;;;;;;;13.27;4.37;;;;;;;8.45;46.63;102663.59;4421677;32;20488;-70
2022/01/18 06:11:07;;;;;;;9.35;3.58;;;;;;;8.24;46.77;102666.87;4421649;32;20117;-70
2022/01/18 06:13:33;;;;;;;12.27;3.47;;;;;;;8.36;46.80;102665.88;4423099;32;20077;-70
2022/01/18 06:15:59;;;;;;;7.62;3.60;;;;;;;8.33;46.75;102666.63;4422501;32;20078;-70
2022/01/18 06:18:24;;;;;;;9.27;3.33;;;;;;;8.20;47.00;102666.78;4422352;32;20034;-70
2022/01/18 06:20:50;;;;;;;15.05;3.83;;;;;;;8.23;46.89;102673.69;4420797;32;20047;-70
2022/01/18 06:23:16;;;;;;;13.93;5.10;;;;;;;8.22;46.94;102671.22;4421016;32;20058;-70
2022/01/18 06:25:42;;;;;;;10.48;4.35;;;;;;;8.14;47.00;102671.09;4420354;32;20395;-70
2022/01/18 06:28:08;;;;;;;10.13;4.62;;;;;;;8.29;46.96;102672.19;4420790;32;20412;-70
2022/01/18 06:30:34;;;;;;;8.70;4.07;;;;;;;8.17;47.15;102680.78;4419702;32;20077;-70
2022/01/18 06:33:00;;;;;;;10.30;4.43;;;;;;;8.24;46.90;102671.69;4421277;32;20113;-70
2022/01/18 06:35:27;;;;;;;8.95;4.10;;;;;;;8.33;46.86;102675.03;4411399;32;20081;-70
2022/01/18 06:37:53;;;;;;;10.25;4.57;;;;;;;8.23;47.07;102681.28;4411861;32;20473;-70
2022/01/18 06:40:18;;;;;;;14.15;4.20;;;;;;;8.30;46.79;102681.37;4410276;32;20045;-70
2022/01/18 06:42:44;;;;;;;12.52;4.50;;;;;;;8.29;46.96;102680.59;4410522;32;20038;-70
2022/01/18 06:45:10;;;;;;;12.68;4.47;;;;;;;8.31;46.73;102681.00;4411985;32;20408;-70
2022/01/18 06:47:38;;;;;;;9.98;5.07;;;;;;;8.33;46.96;102687.06;4410533;32;20393;-70
2022/01/18 06:50:05;;;;;;;15.70;7.03;;;;;;;8.46;46.62;102685.66;4410245;32;20135;-70
2022/01/18 06:52:32;;;;;;;16.55;6.45;;;;;;;8.42;46.61;102682.00;4410439;32;20038;-70
2022/01/18 06:54:57;;;;;;;14.50;6.82;;;;;;;8.33;46.64;102684.25;4413054;32;20084;-70
2022/01/18 06:57:23;;;;;;;13.52;5.82;;;;;;;8.32;46.77;102690.25;4409643;32;20116;-70
2022/01/18 06:59:49;;;;;;;17.83;6.57;;;;;;;8.26;46.81;102677.72;4411063;32;20042;-70
2022/01/18 07:02:15;;;;;;;9.73;5.50;;;;;;;8.33;46.88;102683.44;4411596;32;20740;-70
2022/01/18 07:04:40;;;;;;;13.23;5.75;;;;;;;8.37;46.91;102675.91;4391028;32;20537;-70
2022/01/18 07:07:06;;;;;;;12.50;5.20;;;;;;;8.33;46.72;102681.47;4411690;32;20164;-70
2022/01/18 07:09:32;;;;;;;12.45;5.32;;;;;;;8.33;46.64;102684.25;4408737;32;20057;-70
2022/01/18 07:12:00;;;;;;;12.52;5.57;;;;;;;8.23;46.95;102684.91;4409219;32;20054;-70
2022/01/18 07:14:25;;;;;;;11.10;5.07;;;;;;;8.29;46.81;102680.59;4413130;32;20184;-70
2022/01/18 07:16:51;;;;;;;14.00;5.87;;;;;;;8.24;47.00;102685.69;4411445;32;20818;-70
2022/01/18 07:19:17;;;;;;;12.40;4.87;;;;;;;8.29;47.05;102689.03;4411734;32;20164;-70
2022/01/18 07:21:43;;;;;;;13.82;5.97;;;;;;;8.32;46.97;102691.06;4411632;32;20316;-70
2022/01/18 07:24:18;;;;;;;17.70;5.80;;;;;;;8.39;46.82;102691.19;4408463;32;20073;-70
2022/01/18 07:26:46;;;;;;;19.35;6.62;;;;;;;8.43;46.96;102691.25;4410244;32;20077;-70
2022/01/18 07:29:13;;;;;;;17.98;6.78;;;;;;;8.55;46.81;102694.63;4411108;32;20128;-70
2022/01/18 07:31:39;;;;;;;18.15;6.75;;;;;;;8.59;46.81;102698.28;4407890;32;20041;-70
2022/01/18 07:34:04;;;;;;;18.55;6.40;;;;;;;8.46;46.70;102702.50;4410071;32;20471;-70
2022/01/18 07:36:30;;;;;;;17.75;6.12;;;;;;;8.53;46.54;102701.81;4406584;32;20058;-70
2022/01/18 07:38:56;;;;;;;18.45;6.95;;;;;;;8.56;46.36;102692.66;4406623;32;20037;-70
2022/01/18 07:41:23;;;;;;;18.42;6.93;;;;;;;8.50;46.35;102694.94;4406786;32;20473;-70
2022/01/18 07:43:48;;;;;;;13.48;6.35;;;;;;;8.61;46.32;102684.69;4406047;32;20496;-70
2022/01/18 07:46:14;;;;;;;19.75;7.65;;;;;;;8.50;46.55;102685.75;4403241;32;20046;-70
2022/01/18 07:48:40;;;;;;;21.05;7.90;;;;;;;8.58;46.32;102687.44;4407463;32;20045;-69
2022/01/18 07:51:06;;;;;;;17.70;7.78;;;;;;;8.53;46.43;102682.97;4403601;32;20050;-69
2022/01/18 07:53:32;;;;;;;16.85;7.80;;;;;;;8.56;46.35;102687.81;4404306;32;20120;-69
2022/01/18 07:55:58;;;;;;;13.55;6.18;;;;;;;8.68;46.34;102684.00;4398154;32;20112;-70
2022/01/18 07:58:24;;;;;;;17.75;7.37;;;;;;;8.73;46.25;102678.88;4407055;32;20045;-70
2022/01/18 08:00:50;;;;;;;23.38;9.32;;;;;;;8.84;46.04;102682.62;4397896;32;20487;-70
2022/01/18 08:03:16;;;;;;;19.87;8.55;;;;;;;8.87;45.97;102687.47;4401288;32;20062;-70
2022/01/18 08:05:42;;;;;;;23.52;9.07;;;;;;;8.93;45.75;102693.59;4397572;32;20082;-69
2022/01/18 08:08:08;;;;;;;18.52;8.60;;;;;;;9.11;45.71;102689.03;4404418;32;20408;-70
2022/01/18 08:10:34;;;;;;;23.27;9.18;;;;;;;9.16;45.76;102694.28;4399469;32;20151;-70
2022/01/18 08:13:02;;;;;;;18.37;8.60;;;;;;;9.30;45.46;102688.88;4403644;32;20046;-70
2022/01/18 08:15:37;;;;;;;21.17;8.27;;;;;;;9.50;45.43;102691.09;4404363;32;20041;-70
2022/01/18 08:18:07;;;;;;;30.75;9.95;;;;;;;9.46;45.34;102692.25;4406486;32;20277;-70
2022/01/18 08:20:32;;;;;;;22.80;9.52;;;;;;;9.71;45.06;102688.53;4403479;32;20131;-70
2022/01/18 08:22:58;;;;;;;21.65;9.38;;;;;;;9.68;44.99;102682.88;4398801;32;20105;-70
2022/01/18 08:25:24;;;;;;;24.12;9.40;;;;;;;9.81;44.62;102696.25;4397714;32;20407;-70
2022/01/18 08:27:50;;;;;;;25.10;9.68;;;;;;;9.96;44.60;102688.78;4398062;32;20082;-70
2022/01/18 08:30:17;;;;;;;24.58;11.48;;;;;;;10.14;44.43;102692.59;4399142;32;20080;-70
2022/01/18 08:32:44;;;;;;;22.83;9.45;;;;;;;10.34;43.88;102693.16;4397266;32;20058;-70
2022/01/18 08:35:11;;;;;;;26.33;10.43;;;;;;;10.47;44.06;102694.47;4398913;32;20404;-70
2022/01/18 08:37:36;;;;;;;23.38;10.30;;;;;;;10.59;43.85;102699.78;4395348;32;20346;-70
2022/01/18 08:40:03;;;;;;;26.10;9.80;;;;;;;10.56;43.66;102706.19;4399496;32;20073;-71
2022/01/18 08:42:30;;;;;;;27.05;10.40;;;;;;;10.86;43.22;102701.19;4398960;32;21128;-70
2022/01/18 08:44:55;;;;;;;30.30;11.35;;;;;;;10.92;43.26;102706.03;4393957;32;20101;-70
2022/01/18 08:47:21;;;;;;;31.00;13.25;;;;;;;11.06;42.83;102708.13;4398826;32;20479;-70
2022/01/18 08:49:47;;;;;;;39.60;14.55;;;;;;;11.15;42.69;102703.75;4396857;32;20465;-70
2022/01/18 08:52:14;;;;;;;35.90;15.25;;;;;;;11.29;42.40;102708.66;4395894;32;20104;-69
2022/01/18 08:54:42;;;;;;;44.53;16.35;;;;;;;11.37;42.17;102701.81;4398442;32;20076;-70
2022/01/18 08:57:08;;;;;;;45.00;18.33;;;;;;;11.60;42.19;102705.13;4396683;32;20108;-69
2022/01/18 08:59:35;;;;;;;44.25;19.37;;;;;;;11.62;41.80;102702.75;4399247;32;20093;-71
2022/01/18 09:02:03;;;;;;;67.62;23.52;;;;;;;11.66;41.66;102714.84;4397852;32;20060;-69
2022/01/18 09:04:30;;;;;;;92.60;28.10;;;;;;;11.89;41.47;102713.31;4398959;32;20054;-70
2022/01/18 09:06:57;;;;;;;77.95;28.33;;;;;;;11.73;41.57;102717.69;4400821;32;20227;-69
2022/01/18 09:09:25;;;;;;;84.55;30.25;;;;;;;11.81;41.31;102720.12;4400923;32;20082;-70
2022/01/18 09:11:51;;;;;;;85.20;29.70;;;;;;;11.82;41.04;102718.91;4399531;32;20566;-69
2022/01/18 09:14:18;;;;;;;95.18;31.40;;;;;;;11.94;41.31;102729.03;4397482;32;20078;-71
2022/01/18 09:16:44;;;;;;;102.78;34.65;;;;;;;11.97;41.32;102739.53;4401007;32;20152;-69
2022/01/18 09:19:11;;;;;;;87.82;33.20;;;;;;;12.07;41.17;102741.53;4398995;32;20034;-69
2022/01/18 09:21:37;;;;;;;84.80;34.47;;;;;;;12.07;40.96;102741.53;4398242;32;20042;-69
2022/01/18 09:24:03;;;;;;;90.50;32.80;;;;;;;12.13;40.55;102739.13;4396249;32;20378;-70
2022/01/18 09:26:29;;;;;;;89.97;32.38;;;;;;;12.31;40.45;102729.47;4400731;32;20069;-69
2022/01/18 09:28:55;;;;;;;80.43;32.78;;;;;;;12.31;40.72;102726.66;4400970;32;20379;-69
2022/01/18 09:31:21;;;;;;;82.37;31.67;;;;;;;12.31;40.70;102725.84;4393697;32;20839;-70
2022/01/18 09:33:47;;;;;;;91.72;31.52;;;;;;;12.39;40.34;102735.94;4398108;32;20057;-69
2022/01/18 09:36:13;;;;;;;92.03;30.92;;;;;;;12.54;40.17;102729.88;4397612;32;20129;-70
2022/01/18 09:38:39;;;;;;;101.12;33.67;;;;;;;12.54;40.42;102729.06;4399605;32;20050;-70
2022/01/18 09:41:10;;;;;;;93.72;32.08;;;;;;;12.50;39.94;102729.06;4396573;32;20085;-70
2022/01/18 09:43:39;;;;;;;77.78;31.15;;;;;;;12.73;40.17;102728.66;4399451;32;20440;-70
2022/01/18 09:46:05;;;;;;;85.70;30.98;;;;;;;12.91;40.19;102726.59;4400744;32;20085;-70
2022/01/18 09:48:32;;;;;;;94.95;32.70;;;;;;;12.88;39.98;102733.88;4399430;32;20085;-70
2022/01/18 09:50:59;;;;;;;86.43;34.03;;;;;;;12.70;40.11;102735.91;4397242;32;20042;-70
2022/01/18 09:53:26;;;;;;;94.47;32.17;;;;;;;13.03;39.81;102734.66;4398628;32;20119;-70
2022/01/18 09:55:53;;;;;;;100.43;33.70;;;;;;;13.31;39.76;102738.22;4399280;32;20108;-71
2022/01/18 09:58:20;;;;;;;100.18;32.97;;;;;;;13.42;39.71;102736.19;4399040;32;20077;-71
2022/01/18 10:00:46;;;;;;;92.68;33.95;;;;;;;13.61;39.17;102741.34;4393962;32;20050;-72
2022/01/18 10:03:33;;;;;;;98.25;32.90;;;;;;;13.57;39.27;102740.53;4398344;32;20208;-69
2022/01/18 10:06:02;;;;;;;91.28;33.72;;;;;;;13.71;39.05;102748.16;4397916;32;20093;-71
2022/01/18 10:08:28;;;;;;;102.43;38.72;;;;;;;13.83;38.67;102748.50;4400206;32;20076;-71
2022/01/18 10:10:57;;;;;;;98.75;40.47;;;;;;;14.01;39.23;102748.41;4400602;32;20101;-72
2022/01/18 10:13:26;;;;;;;91.53;39.70;;;;;;;14.27;38.75;102744.22;4400920;32;20179;-71
2022/01/18 10:18:56;;;;;;;99.07;38.65;;;;;;;14.52;38.39;102741.97;3978050;32;15026484;-70
2022/01/18 10:26:57;;;;;;;103.70;38.42;;;;;;;15.02;37.93;102717.59;3951647;32;15055070;-70
2022/01/18 10:29:30;;;;;;;99.03;35.97;;;;;;;15.03;37.99;102728.53;4405462;32;20068;-70
2022/01/18 10:31:59;;;;;;;102.00;38.42;;;;;;;15.18;37.49;102729.16;4403669;32;20041;-70
2022/01/18 10:39:48;;;;;;;24.73;10.68;;;;;;;16.38;36.39;102720.59;3973069;32;15030023;-70
2022/01/18 10:45:04;;;;;;;8.95;2.70;;;;;;;16.61;35.59;102720.66;3920580;32;15122196;-70
2022/01/18 10:47:32;;;;;;;9.30;3.12;;;;;;;16.61;35.59;102720.66;4365979;32;20077;-69
2022/01/18 10:50:07;;;;;;;11.93;2.30;;;;;;;16.53;35.61;102724.03;4366515;32;21559;-69
2022/01/18 10:52:33;;;;;;;11.00;2.97;;;;;;;16.80;35.18;102728.44;4367665;32;20094;-69
2022/01/18 10:55:00;;;;;;;8.25;3.03;;;;;;;16.89;34.84;102725.03;4366593;32;20078;-70
2022/01/18 11:00:10;;;;;;;9.15;3.00;;;;;;;18.03;32.95;102736.47;3945318;32;15732906;-71
2022/01/18 11:02:41;;;;;;;10.43;3.00;;;;;;;18.03;32.95;102736.47;4419128;32;20110;-71
2022/01/18 11:08:02;;;;;;;8.48;3.42;;;;;;;17.81;32.52;102716.22;3972380;32;15022144;-71
2022/01/18 11:10:41;;;;;;;8.98;3.55;;;;;;;17.59;33.17;102717.94;4425539;32;20090;-71
2022/01/18 11:13:22;;;;;;;11.30;3.12;;;;;;;17.80;32.83;102709.72;4426468;32;20100;-70
2022/01/18 11:15:51;;;;;;;6.90;3.20;;;;;;;17.74;33.14;102702.94;4423453;32;20042;-70
2022/01/18 11:18:28;;;;;;;12.40;3.45;;;;;;;17.52;33.16;102698.97;4428425;32;20064;-70
2022/01/18 11:20:55;;;;;;;10.90;3.10;;;;;;;17.68;33.03;102693.31;4422974;32;21215;-71
2022/01/18 11:23:23;;;;;;;7.35;2.78;;;;;;;17.34;33.24;102695.66;4424854;32;20440;-71
2022/01/18 11:25:52;;;;;;;9.80;2.37;;;;;;;17.50;33.37;102698.63;4426234;32;20110;-70
2022/01/18 11:28:18;;;;;;;10.10;2.33;;;;;;;17.56;32.85;102694.00;4424558;32;20500;-70
2022/01/18 11:30:46;;;;;;;12.37;2.35;;;;;;;17.54;32.83;102696.47;4423602;32;20751;-70
2022/01/18 11:33:15;;;;;;;14.50;2.83;;;;;;;17.95;32.28;102687.41;4424640;32;20553;-71
2022/01/18 11:40:57;;;;;;;12.65;3.28;;;;;;;19.13;30.39;102693.31;3991110;31;15019594;-71
2022/01/18 11:43:41;;;;;;;12.85;5.05;;;;;;;19.13;30.39;102693.31;4442940;32;20084;-71
2022/01/18 11:46:34;;;;;;;38.53;14.98;;;;;;;19.28;30.71;102683.09;4442874;32;20107;-71
2022/01/18 11:49:04;;;;;;;66.43;24.52;;;;;;;19.77;30.36;102676.69;4441547;32;20766;-71
2022/01/18 11:51:54;;;;;;;75.05;32.65;;;;;;;20.05;30.41;102671.31;4442888;32;20293;-71
2022/01/18 12:00:18;;;;;;;84.80;38.20;;;;;;;22.15;27.25;102660.63;3974535;32;15022971;-72
2022/01/18 12:02:46;;;;;;;66.85;33.08;;;;;;;22.15;27.25;102660.63;4426219;32;20103;-72
2022/01/18 12:05:19;;;;;;;69.37;31.33;;;;;;;22.32;27.48;102639.00;4426388;32;20073;-72
2022/01/18 12:13:11;;;;;;;19.10;7.40;;;;;;;24.69;24.24;102624.38;3977428;32;15021903;-70
2022/01/18 12:20:50;;;;;;;8.73;1.95;;;;;;;25.16;22.58;102618.50;3981890;32;15025795;-72
2022/01/18 12:34:35;;;;;;;8.80;1.90;;;;;;;26.23;21.16;102614.84;3972168;32;15031169;-71
2022/01/18 12:50:24;;;;;;;11.95;2.95;;;;;;;28.21;19.09;102619.00;3983874;32;15029834;-73
2022/01/18 13:00:57;;;;;;;6.30;1.77;;;;;;;27.09;19.80;102604.13;3972472;32;15028518;-73
2022/01/18 13:06:03;;;;;;;8.48;2.05;;;;;;;27.07;20.09;102593.06;3967216;32;15030811;-73
2022/01/18 13:08:50;;;;;;;5.57;1.65;;;;;;;27.07;20.09;102593.06;4414607;32;20061;-72
2022/01/18 13:13:59;;;;;;;8.13;2.20;;;;;;;26.12;20.89;102577.16;3973379;32;15026413;-71
2022/01/18 13:25:02;;;;;;;12.18;2.10;;;;;;;24.07;22.78;102555.25;4426522;32;20070;-73
2022/01/18 13:27:35;;;;;;;13.25;2.17;;;;;;;23.73;23.48;102560.69;4429236;32;20069;-73
2022/01/18 13:32:48;;;;;;;6.78;2.03;;;;;;;22.60;24.88;102559.50;3973243;32;15042364;-74
2022/01/18 13:35:16;;;;;;;8.60;2.45;;;;;;;21.64;26.17;102539.84;4426390;32;20064;-72
2022/01/18 13:37:42;;;;;;;11.30;2.03;;;;;;;21.57;26.40;102539.38;4429508;32;20088;-73
2022/01/18 13:40:14;;;;;;;10.82;2.42;;;;;;;21.04;27.09;102541.50;4422765;32;20701;-71
2022/01/18 13:42:43;;;;;;;14.93;1.83;;;;;;;21.23;27.02;102537.47;4420899;32;20081;-74
2022/01/18 13:45:24;;;;;;;15.75;3.00;;;;;;;20.80;27.51;102537.47;4423506;32;20036;-72
2022/01/18 13:53:34;;;;;;;9.38;2.65;;;;;;;23.12;25.33;102531.19;3977299;32;15029988;-73
2022/01/18 14:03:54;;;;;;;15.32;3.50;;;;;;;23.71;24.72;102518.03;3986929;31;15016279;-72
2022/01/18 14:06:31;;;;;;;14.13;3.25;;;;;;;23.71;24.72;102518.03;4443305;32;20100;-73
2022/01/18 14:08:57;;;;;;;14.60;3.17;;;;;;;23.36;24.79;102514.06;4443561;32;21894;-72
2022/01/18 14:11:26;;;;;;;13.85;3.80;;;;;;;23.18;25.12;102503.41;4440808;32;20107;-71
2022/01/18 14:13:54;;;;;;;11.43;3.25;;;;;;;23.76;24.54;102517.38;4438419;32;21198;-72
2022/01/18 14:16:30;;;;;;;16.02;4.03;;;;;;;23.07;25.25;102499.47;4442669;32;20077;-72